Time;durP1;ratioP1;P1;durP2;ratioP2;P2;SDS_P1;SDS_P2;PMS_P1;PMS_P2;Temp;Humidity;BMP_temperature;BMP_pressure;BME280_temperature;BME280_humidity;BME280_pressure;Samples;Min_cycle;Max_cycle;Signal;HPM_P1;HPM_P2
2021/12/30 00:00:47;;;;;;;48.85;7.78;;;;;;;;;;5071697;28;20045;-61
2021/12/30 00:03:13;;;;;;;51.50;7.55;;;;;;;;;;5071872;28;20499;-61
2021/12/30 00:05:40;;;;;;;41.67;6.30;;;;;;;;;;5072490;28;20037;-61
2021/12/30 00:08:06;;;;;;;49.50;6.88;;;;;;;;;;5071592;28;20091;-61
2021/12/30 00:10:33;;;;;;;41.60;6.47;;;;;;;;;;5072540;28;20048;-61
2021/12/30 00:12:59;;;;;;;40.65;5.55;;;;;;;;;;5072242;28;20032;-61
2021/12/30 00:15:25;;;;;;;42.63;7.05;;;;;;;;;;5071871;28;20028;-61
2021/12/30 00:17:51;;;;;;;43.45;6.88;;;;;;;;;;5072467;28;20115;-61
2021/12/30 00:20:18;;;;;;;41.90;5.80;;;;;;;;;;5072461;28;20064;-61
2021/12/30 00:22:44;;;;;;;46.63;6.93;;;;;;;;;;5071417;28;20040;-61
2021/12/30 00:25:11;;;;;;;40.40;6.03;;;;;;;;;;5072283;28;20132;-61
2021/12/30 00:27:37;;;;;;;48.67;6.40;;;;;;;;;;5072079;28;20041;-61
2021/12/30 00:30:05;;;;;;;43.70;6.15;;;;;;;;;;5071446;28;20039;-61
2021/12/30 00:32:32;;;;;;;45.30;5.75;;;;;;;;;;5072098;28;20466;-61
2021/12/30 00:34:58;;;;;;;46.65;6.00;;;;;;;;;;5072065;28;20124;-61
2021/12/30 00:37:24;;;;;;;39.40;6.15;;;;;;;;;;5071488;28;20052;-61
2021/12/30 00:39:50;;;;;;;42.65;5.50;;;;;;;;;;5072084;28;20044;-61
2021/12/30 00:42:16;;;;;;;44.17;6.47;;;;;;;;;;5071465;28;20079;-61
2021/12/30 00:44:42;;;;;;;36.03;5.80;;;;;;;;;;5071343;28;20503;-61
2021/12/30 00:47:08;;;;;;;40.20;5.43;;;;;;;;;;5071497;28;20040;-61
2021/12/30 00:49:34;;;;;;;48.90;8.10;;;;;;;;;;5071911;28;20040;-61
2021/12/30 00:52:01;;;;;;;49.53;10.32;;;;;;;;;;5071257;28;20040;-61
2021/12/30 00:54:27;;;;;;;57.03;10.10;;;;;;;;;;5071741;28;20542;-61
2021/12/30 00:56:53;;;;;;;43.75;8.77;;;;;;;;;;5071840;28;20727;-61
2021/12/30 00:59:19;;;;;;;37.92;6.75;;;;;;;;;;5071088;28;20044;-61
2021/12/30 01:01:45;;;;;;;45.97;8.95;;;;;;;;;;5071818;28;20044;-61
2021/12/30 01:04:11;;;;;;;54.42;9.10;;;;;;;;;;5071499;28;20479;-61
2021/12/30 01:06:38;;;;;;;52.67;7.63;;;;;;;;;;5071155;28;20074;-61
2021/12/30 01:09:05;;;;;;;43.65;6.78;;;;;;;;;;5071671;28;20364;-62
2021/12/30 01:11:32;;;;;;;45.63;7.45;;;;;;;;;;5071352;28;20048;-61
2021/12/30 01:14:09;;;;;;;45.97;6.38;;;;;;;;;;5070845;28;20044;-61
2021/12/30 01:16:41;;;;;;;40.25;5.13;;;;;;;;;;5071645;28;20803;-61
2021/12/30 01:19:22;;;;;;;43.00;6.10;;;;;;;;;;5071342;28;20720;-61
2021/12/30 01:21:50;;;;;;;42.83;5.72;;;;;;;;;;5070804;28;20044;-61
2021/12/30 01:24:16;;;;;;;41.28;6.05;;;;;;;;;;5071140;28;20830;-61
2021/12/30 01:26:42;;;;;;;41.30;6.40;;;;;;;;;;5071570;28;20044;-61
2021/12/30 01:29:08;;;;;;;45.72;6.13;;;;;;;;;;5070610;28;20041;-61
2021/12/30 01:31:34;;;;;;;42.65;6.47;;;;;;;;;;5071372;28;20037;-61
2021/12/30 01:34:00;;;;;;;48.53;5.95;;;;;;;;;;5071494;28;20037;-61
2021/12/30 01:36:27;;;;;;;39.03;5.47;;;;;;;;;;5070901;28;20119;-61
2021/12/30 01:38:54;;;;;;;46.42;5.43;;;;;;;;;;5071468;28;20044;-61
2021/12/30 01:41:21;;;;;;;40.33;5.70;;;;;;;;;;5071191;28;20040;-61
2021/12/30 01:43:47;;;;;;;42.30;6.15;;;;;;;;;;5070529;28;20044;-61
2021/12/30 01:46:13;;;;;;;43.88;6.45;;;;;;;;;;5071259;28;20094;-61
2021/12/30 01:48:39;;;;;;;38.15;6.25;;;;;;;;;;5071253;28;20048;-61
2021/12/30 01:51:07;;;;;;;44.03;5.30;;;;;;;;;;5070525;28;20040;-61
2021/12/30 01:53:33;;;;;;;40.25;5.75;;;;;;;;;;5071286;28;20039;-61
2021/12/30 01:56:00;;;;;;;37.05;6.20;;;;;;;;;;5071213;28;20040;-61
2021/12/30 01:58:26;;;;;;;40.15;5.50;;;;;;;;;;5070544;28;20037;-61
2021/12/30 02:00:53;;;;;;;42.83;6.55;;;;;;;;;;5071007;28;20045;-61
2021/12/30 02:03:19;;;;;;;46.55;5.97;;;;;;;;;;5070989;28;20044;-61
2021/12/30 02:05:45;;;;;;;31.80;5.80;;;;;;;;;;5070456;28;20036;-61
2021/12/30 02:08:14;;;;;;;40.95;5.88;;;;;;;;;;5071113;28;20086;-61
2021/12/30 02:10:40;;;;;;;40.95;6.53;;;;;;;;;;5070735;28;20036;-61
2021/12/30 02:13:07;;;;;;;30.65;6.10;;;;;;;;;;5069994;28;20052;-61
2021/12/30 02:15:33;;;;;;;37.00;6.20;;;;;;;;;;5071066;28;20043;-61
2021/12/30 02:18:01;;;;;;;39.92;6.43;;;;;;;;;;5071017;28;20432;-61
2021/12/30 02:20:39;;;;;;;39.97;6.97;;;;;;;;;;5070553;28;20491;-61
2021/12/30 02:23:06;;;;;;;39.60;7.47;;;;;;;;;;5070311;28;20125;-61
2021/12/30 02:25:32;;;;;;;48.85;9.38;;;;;;;;;;5071790;28;20055;-61
2021/12/30 02:27:58;;;;;;;47.95;8.82;;;;;;;;;;5073832;28;20549;-61
2021/12/30 02:30:24;;;;;;;60.90;9.85;;;;;;;;;;5074450;28;20043;-61
2021/12/30 02:32:50;;;;;;;59.67;11.43;;;;;;;;;;5074353;28;20047;-61
2021/12/30 02:35:16;;;;;;;55.67;11.95;;;;;;;;;;5073821;28;20044;-61
2021/12/30 02:37:43;;;;;;;55.70;12.68;;;;;;;;;;5074294;28;20036;-61
2021/12/30 02:40:09;;;;;;;56.00;12.93;;;;;;;;;;5074215;28;20406;-61
2021/12/30 02:42:35;;;;;;;62.50;15.18;;;;;;;;;;5074020;28;20040;-61
2021/12/30 02:45:01;;;;;;;66.20;14.45;;;;;;;;;;5073456;28;20074;-61
2021/12/30 02:47:27;;;;;;;73.18;14.40;;;;;;;;;;5074010;28;20541;-61
2021/12/30 02:49:53;;;;;;;67.82;15.07;;;;;;;;;;5074206;28;20037;-61
2021/12/30 02:52:19;;;;;;;78.55;16.27;;;;;;;;;;5073396;28;20039;-61
2021/12/30 02:54:45;;;;;;;68.15;15.75;;;;;;;;;;5074027;28;20090;-61
2021/12/30 02:57:12;;;;;;;71.38;17.33;;;;;;;;;;5073703;28;20040;-61
2021/12/30 02:59:38;;;;;;;64.43;15.45;;;;;;;;;;5073302;28;20028;-61
2021/12/30 03:02:04;;;;;;;74.00;16.00;;;;;;;;;;5073831;28;20037;-61
2021/12/30 03:04:30;;;;;;;63.25;16.40;;;;;;;;;;5073961;28;20032;-61
2021/12/30 03:06:58;;;;;;;74.15;17.70;;;;;;;;;;5073218;28;20159;-61
2021/12/30 03:09:24;;;;;;;60.47;16.35;;;;;;;;;;5073550;28;20044;-61
2021/12/30 03:11:50;;;;;;;68.72;16.30;;;;;;;;;;5073704;28;20033;-61
2021/12/30 03:14:16;;;;;;;79.70;18.15;;;;;;;;;;5072622;28;20505;-61
2021/12/30 03:16:44;;;;;;;67.65;16.67;;;;;;;;;;5073479;28;20115;-61
2021/12/30 03:19:10;;;;;;;63.08;15.38;;;;;;;;;;5073398;28;20055;-61
2021/12/30 03:21:37;;;;;;;62.55;16.45;;;;;;;;;;5072757;28;20510;-61
2021/12/30 03:24:03;;;;;;;63.65;15.13;;;;;;;;;;5073018;28;20084;-61
2021/12/30 03:26:31;;;;;;;56.97;14.80;;;;;;;;;;5062410;28;20098;-61
2021/12/30 03:28:57;;;;;;;56.45;14.63;;;;;;;;;;5052709;28;20464;-61
2021/12/30 03:31:23;;;;;;;67.68;16.15;;;;;;;;;;5053046;28;20124;-61
2021/12/30 03:33:50;;;;;;;60.25;15.07;;;;;;;;;;5053205;28;20478;-61
2021/12/30 03:36:16;;;;;;;62.40;14.43;;;;;;;;;;5052295;28;20048;-61
2021/12/30 03:38:44;;;;;;;60.88;15.45;;;;;;;;;;5052510;28;20090;-61
2021/12/30 03:41:12;;;;;;;77.57;16.33;;;;;;;;;;5053106;28;20041;-61
2021/12/30 03:43:38;;;;;;;62.92;14.90;;;;;;;;;;5050772;28;20052;-62
2021/12/30 03:46:05;;;;;;;63.72;14.25;;;;;;;;;;5052988;28;20048;-61
2021/12/30 03:48:33;;;;;;;74.53;14.35;;;;;;;;;;5052939;28;20049;-61
2021/12/30 03:51:05;;;;;;;68.68;14.52;;;;;;;;;;5052237;28;20052;-61
2021/12/30 03:53:31;;;;;;;72.03;15.32;;;;;;;;;;5052853;28;20040;-61
2021/12/30 03:55:57;;;;;;;60.05;13.75;;;;;;;;;;5052805;28;20460;-61
2021/12/30 03:58:23;;;;;;;84.50;15.82;;;;;;;;;;5052183;28;20729;-61
2021/12/30 04:00:50;;;;;;;56.67;13.70;;;;;;;;;;5052706;28;20080;-61
2021/12/30 04:03:16;;;;;;;71.32;14.85;;;;;;;;;;5052619;28;20045;-61
2021/12/30 04:05:44;;;;;;;68.90;13.95;;;;;;;;;;5051996;28;20044;-61
2021/12/30 04:08:11;;;;;;;71.45;13.25;;;;;;;;;;5052465;28;20474;-61
2021/12/30 04:10:38;;;;;;;61.20;13.50;;;;;;;;;;5051111;28;20071;-61
2021/12/30 04:13:04;;;;;;;65.85;14.07;;;;;;;;;;5051918;28;20033;-61
2021/12/30 04:15:30;;;;;;;63.90;13.32;;;;;;;;;;5052565;28;20435;-61
2021/12/30 04:17:56;;;;;;;58.95;12.90;;;;;;;;;;5052557;28;20049;-61
2021/12/30 04:20:22;;;;;;;63.60;13.60;;;;;;;;;;5051661;28;20037;-61
2021/12/30 04:22:48;;;;;;;66.93;13.93;;;;;;;;;;5051768;28;20040;-61
2021/12/30 04:25:15;;;;;;;69.18;13.48;;;;;;;;;;5052412;28;20128;-61
2021/12/30 04:27:42;;;;;;;62.90;14.10;;;;;;;;;;5071576;28;20087;-62
2021/12/30 04:30:08;;;;;;;65.97;14.82;;;;;;;;;;5072113;28;20044;-61
2021/12/30 04:32:35;;;;;;;61.67;14.48;;;;;;;;;;5071795;28;20124;-61
2021/12/30 04:35:01;;;;;;;63.55;14.02;;;;;;;;;;5071571;28;20043;-62
2021/12/30 04:37:27;;;;;;;64.53;14.57;;;;;;;;;;5071934;28;20112;-61
2021/12/30 04:39:53;;;;;;;67.60;14.15;;;;;;;;;;5072101;28;20039;-61
2021/12/30 04:42:19;;;;;;;70.72;13.40;;;;;;;;;;5071495;28;20040;-61
2021/12/30 04:44:47;;;;;;;68.10;14.13;;;;;;;;;;5072019;28;20442;-61
2021/12/30 04:47:14;;;;;;;64.60;15.07;;;;;;;;;;5071662;28;20041;-61
2021/12/30 04:49:40;;;;;;;67.82;15.25;;;;;;;;;;5071039;28;20477;-61
2021/12/30 04:52:06;;;;;;;57.10;14.68;;;;;;;;;;5071812;28;20097;-61
2021/12/30 04:54:32;;;;;;;72.85;14.52;;;;;;;;;;5072033;28;20372;-61
2021/12/30 04:56:59;;;;;;;68.45;16.52;;;;;;;;;;5071263;28;20502;-61
2021/12/30 04:59:25;;;;;;;64.45;15.40;;;;;;;;;;5072031;28;20049;-61
2021/12/30 05:01:51;;;;;;;52.42;16.67;;;;;;;;;;5071803;28;20072;-61
2021/12/30 05:04:17;;;;;;;67.38;17.15;;;;;;;;;;5071177;28;20040;-61
2021/12/30 05:06:44;;;;;;;55.42;17.08;;;;;;;;;;5071736;28;20390;-61
2021/12/30 05:09:10;;;;;;;58.55;15.85;;;;;;;;;;5071664;28;20429;-61
2021/12/30 05:11:40;;;;;;;46.33;15.27;;;;;;;;;;5070778;28;20055;-61
2021/12/30 05:14:07;;;;;;;63.53;17.38;;;;;;;;;;5071477;28;20051;-61
2021/12/30 05:16:33;;;;;;;50.22;15.18;;;;;;;;;;5071662;28;20498;-61
2021/12/30 05:18:59;;;;;;;49.55;15.43;;;;;;;;;;5070771;28;20090;-61
2021/12/30 05:21:25;;;;;;;44.60;14.95;;;;;;;;;;5071616;28;20036;-61
2021/12/30 05:23:51;;;;;;;44.83;14.30;;;;;;;;;;5071244;28;20056;-61
2021/12/30 05:26:18;;;;;;;41.78;13.95;;;;;;;;;;5070720;28;20052;-61
2021/12/30 05:28:44;;;;;;;42.38;14.93;;;;;;;;;;5071016;28;20049;-61
2021/12/30 05:31:11;;;;;;;47.13;15.23;;;;;;;;;;5071083;28;20086;-61
2021/12/30 05:33:37;;;;;;;41.55;14.30;;;;;;;;;;5070577;28;20051;-61
2021/12/30 05:36:04;;;;;;;38.58;14.00;;;;;;;;;;5071038;28;20054;-61
2021/12/30 05:38:30;;;;;;;46.17;14.15;;;;;;;;;;5071359;28;20044;-61
2021/12/30 05:40:56;;;;;;;44.42;15.40;;;;;;;;;;5070630;28;20040;-61
2021/12/30 05:43:22;;;;;;;56.63;15.82;;;;;;;;;;5071098;28;20449;-61
2021/12/30 05:45:48;;;;;;;56.28;19.00;;;;;;;;;;5071271;28;20127;-61
2021/12/30 05:48:14;;;;;;;66.28;18.58;;;;;;;;;;5069208;28;20070;-61
2021/12/30 05:50:40;;;;;;;60.72;18.65;;;;;;;;;;5071010;28;20079;-61
2021/12/30 05:53:06;;;;;;;61.05;19.58;;;;;;;;;;5071206;28;20045;-61
2021/12/30 05:55:32;;;;;;;70.22;20.73;;;;;;;;;;5070551;28;20040;-61
2021/12/30 05:57:59;;;;;;;69.20;22.67;;;;;;;;;;5071179;28;20094;-61
2021/12/30 06:00:26;;;;;;;79.65;21.45;;;;;;;;;;5072259;28;20044;-61
2021/12/30 06:02:52;;;;;;;94.03;25.23;;;;;;;;;;5074229;28;20044;-61
2021/12/30 06:05:18;;;;;;;96.30;25.23;;;;;;;;;;5075072;28;20127;-61
2021/12/30 06:07:45;;;;;;;83.25;24.20;;;;;;;;;;5074526;28;20037;-61
2021/12/30 06:10:12;;;;;;;110.07;26.48;;;;;;;;;;5074212;28;20052;-61
2021/12/30 06:12:38;;;;;;;99.03;26.08;;;;;;;;;;5074762;28;20064;-61
2021/12/30 06:15:05;;;;;;;89.22;24.92;;;;;;;;;;5074672;28;20037;-61
2021/12/30 06:17:31;;;;;;;111.43;26.25;;;;;;;;;;5074002;28;20041;-61
2021/12/30 06:19:57;;;;;;;101.50;24.48;;;;;;;;;;5074609;28;20692;-61
2021/12/30 06:22:23;;;;;;;105.00;24.92;;;;;;;;;;5074561;28;20033;-61
2021/12/30 06:24:49;;;;;;;100.10;24.35;;;;;;;;;;5073521;28;20061;-61
2021/12/30 06:27:15;;;;;;;110.30;25.83;;;;;;;;;;5074325;28;20072;-61
2021/12/30 06:29:41;;;;;;;91.90;23.52;;;;;;;;;;5074420;28;20594;-61
2021/12/30 06:32:07;;;;;;;99.63;24.73;;;;;;;;;;5073420;28;20040;-61
2021/12/30 06:34:34;;;;;;;89.47;22.63;;;;;;;;;;5074160;28;20037;-61
2021/12/30 06:37:00;;;;;;;96.38;22.73;;;;;;;;;;5074495;28;20040;-61
2021/12/30 06:39:26;;;;;;;92.78;22.83;;;;;;;;;;5074141;28;20040;-61
2021/12/30 06:41:52;;;;;;;92.78;22.52;;;;;;;;;;5073815;28;20067;-61
2021/12/30 06:44:18;;;;;;;74.70;20.77;;;;;;;;;;5073810;28;20056;-61
2021/12/30 06:46:52;;;;;;;79.10;21.02;;;;;;;;;;5074143;28;20033;-61
2021/12/30 06:49:18;;;;;;;79.88;21.05;;;;;;;;;;5073944;28;20052;-61
2021/12/30 06:51:44;;;;;;;81.07;20.15;;;;;;;;;;5063459;28;20040;-61
2021/12/30 06:54:11;;;;;;;72.85;18.77;;;;;;;;;;5073692;28;20044;-61
2021/12/30 06:56:37;;;;;;;62.45;16.73;;;;;;;;;;5073140;28;20128;-60
2021/12/30 06:59:03;;;;;;;56.95;17.40;;;;;;;;;;5073520;28;20040;-61
2021/12/30 07:01:30;;;;;;;58.60;16.95;;;;;;;;;;5073642;28;20036;-61
2021/12/30 07:03:56;;;;;;;58.10;16.02;;;;;;;;;;5072898;28;20123;-61
2021/12/30 07:06:22;;;;;;;47.65;15.70;;;;;;;;;;5073614;28;20455;-61
2021/12/30 07:08:48;;;;;;;57.67;16.63;;;;;;;;;;5073474;28;20460;-61
2021/12/30 07:11:14;;;;;;;48.22;14.80;;;;;;;;;;5072808;28;20055;-61
2021/12/30 07:13:40;;;;;;;49.72;13.90;;;;;;;;;;5073125;28;20040;-60
2021/12/30 07:16:06;;;;;;;43.20;12.38;;;;;;;;;;5073197;28;20083;-61
2021/12/30 07:18:33;;;;;;;40.08;12.15;;;;;;;;;;5072547;28;20055;-61
2021/12/30 07:20:59;;;;;;;38.05;12.13;;;;;;;;;;5073319;28;20047;-61
2021/12/30 07:23:25;;;;;;;32.47;10.52;;;;;;;;;;5072667;28;20487;-61
2021/12/30 07:25:52;;;;;;;28.83;10.23;;;;;;;;;;5072617;28;20062;-61
2021/12/30 07:28:18;;;;;;;20.33;8.52;;;;;;;;;;5072999;28;20101;-61
2021/12/30 07:30:45;;;;;;;25.65;8.95;;;;;;;;;;5073197;28;20047;-61
2021/12/30 07:33:11;;;;;;;25.25;9.23;;;;;;;;;;5072222;28;20061;-61
2021/12/30 07:35:37;;;;;;;19.45;7.32;;;;;;;;;;5072876;28;20040;-61
2021/12/30 07:38:03;;;;;;;18.05;6.75;;;;;;;;;;5072807;28;20037;-61
2021/12/30 07:40:30;;;;;;;13.77;6.10;;;;;;;;;;5072354;28;20037;-61
2021/12/30 07:42:56;;;;;;;15.02;5.97;;;;;;;;;;5072703;28;20777;-61
2021/12/30 07:45:22;;;;;;;11.50;4.78;;;;;;;;;;5072691;28;20039;-61
2021/12/30 07:47:50;;;;;;;11.38;5.25;;;;;;;;;;5071700;28;20526;-61
2021/12/30 07:50:16;;;;;;;7.60;4.55;;;;;;;;;;5072560;28;20117;-61
2021/12/30 07:52:43;;;;;;;9.45;4.70;;;;;;;;;;5072650;28;20033;-61
2021/12/30 07:55:10;;;;;;;10.60;5.10;;;;;;;;;;5066656;28;20041;-62
2021/12/30 07:57:36;;;;;;;10.32;4.78;;;;;;;;;;5071913;28;20040;-62
2021/12/30 08:00:04;;;;;;;9.32;4.95;;;;;;;;;;5072446;28;20041;-62
2021/12/30 08:02:30;;;;;;;7.65;4.03;;;;;;;;;;5071664;28;20115;-62
2021/12/30 08:04:56;;;;;;;7.15;4.60;;;;;;;;;;5071781;28;20475;-62
2021/12/30 08:07:24;;;;;;;8.25;5.03;;;;;;;;;;5071481;28;20123;-62
2021/12/30 08:09:51;;;;;;;8.43;4.93;;;;;;;;;;5070489;28;20049;-62
2021/12/30 08:12:17;;;;;;;7.85;5.18;;;;;;;;;;5071915;28;20048;-62
2021/12/30 08:14:43;;;;;;;9.93;5.68;;;;;;;;;;5071965;28;20398;-62
2021/12/30 08:17:09;;;;;;;12.05;5.38;;;;;;;;;;5070733;28;20043;-62
2021/12/30 08:19:35;;;;;;;9.35;5.35;;;;;;;;;;5071948;28;20062;-62
2021/12/30 08:22:02;;;;;;;9.70;5.32;;;;;;;;;;5071908;28;20052;-62
2021/12/30 08:24:29;;;;;;;9.48;5.38;;;;;;;;;;5070213;28;20049;-62
2021/12/30 08:26:56;;;;;;;10.70;5.47;;;;;;;;;;5071343;28;20076;-62
2021/12/30 08:29:22;;;;;;;9.18;5.68;;;;;;;;;;5071670;28;20075;-62
2021/12/30 08:31:48;;;;;;;12.27;6.70;;;;;;;;;;5070653;28;20055;-62
2021/12/30 08:34:14;;;;;;;11.90;7.03;;;;;;;;;;5071686;28;20060;-62
2021/12/30 08:36:40;;;;;;;16.70;8.48;;;;;;;;;;5071496;28;20047;-62
2021/12/30 08:39:06;;;;;;;18.65;9.43;;;;;;;;;;5070778;28;20048;-62
2021/12/30 08:41:33;;;;;;;19.27;10.25;;;;;;;;;;5071749;28;20040;-62
2021/12/30 08:43:59;;;;;;;24.98;11.73;;;;;;;;;;5071393;28;20642;-61
2021/12/30 08:46:25;;;;;;;27.83;12.65;;;;;;;;;;5070723;28;20044;-62
2021/12/30 08:48:51;;;;;;;24.25;10.35;;;;;;;;;;5071189;28;20043;-62
2021/12/30 08:51:17;;;;;;;24.05;10.05;;;;;;;;;;5071275;28;20399;-63
2021/12/30 08:53:43;;;;;;;22.50;10.07;;;;;;;;;;5071015;28;20036;-62
2021/12/30 08:56:11;;;;;;;19.42;9.25;;;;;;;;;;5071270;28;20091;-62
2021/12/30 08:58:37;;;;;;;24.70;9.30;;;;;;;;;;5071061;28;20068;-62
2021/12/30 09:01:03;;;;;;;26.50;9.30;;;;;;;;;;5069967;28;20036;-62
2021/12/30 09:03:30;;;;;;;19.80;8.55;;;;;;;;;;5070685;28;20041;-63
2021/12/30 09:05:56;;;;;;;17.40;7.60;;;;;;;;;;5071402;28;20066;-63
2021/12/30 09:08:22;;;;;;;15.43;6.85;;;;;;;;;;5070201;28;20040;-63
2021/12/30 09:10:50;;;;;;;15.60;5.80;;;;;;;;;;5071138;28;20041;-62
2021/12/30 09:13:18;;;;;;;13.90;4.93;;;;;;;;;;5070750;28;20376;-62
2021/12/30 09:15:45;;;;;;;10.75;4.88;;;;;;;;;;5070530;28;20040;-63
2021/12/30 09:18:12;;;;;;;17.45;5.50;;;;;;;;;;5070981;28;20509;-62
2021/12/30 09:20:39;;;;;;;14.02;5.32;;;;;;;;;;5070901;28;20043;-62
2021/12/30 09:23:06;;;;;;;13.40;5.28;;;;;;;;;;5070184;28;20098;-62
2021/12/30 09:25:32;;;;;;;14.23;5.43;;;;;;;;;;5071103;28;20040;-62
2021/12/30 09:27:58;;;;;;;13.13;5.03;;;;;;;;;;5070651;28;20044;-62
2021/12/30 09:30:25;;;;;;;14.63;4.60;;;;;;;;;;5070309;28;20058;-63
2021/12/30 09:32:53;;;;;;;14.85;5.97;;;;;;;;;;5070770;28;20040;-63
2021/12/30 09:35:19;;;;;;;15.98;6.00;;;;;;;;;;5071059;28;20036;-63
2021/12/30 09:37:46;;;;;;;15.07;7.00;;;;;;;;;;5072673;28;20072;-62
2021/12/30 09:40:14;;;;;;;19.67;6.93;;;;;;;;;;5074741;28;20127;-63
2021/12/30 09:42:45;;;;;;;16.17;6.05;;;;;;;;;;5074696;28;20467;-63
2021/12/30 09:45:11;;;;;;;16.60;7.90;;;;;;;;;;5074065;28;20198;-63
2021/12/30 09:47:58;;;;;;;13.73;7.10;;;;;;;;;;5074041;28;20434;-63
2021/12/30 09:50:29;;;;;;;17.73;6.30;;;;;;;;;;5074385;28;20413;-63
2021/12/30 09:52:56;;;;;;;15.55;6.68;;;;;;;;;;5073686;28;20116;-62
2021/12/30 09:55:22;;;;;;;16.67;6.18;;;;;;;;;;5075068;28;20048;-62
2021/12/30 09:57:48;;;;;;;20.40;6.75;;;;;;;;;;5074712;28;20079;-63
2021/12/30 10:00:15;;;;;;;17.50;6.60;;;;;;;;;;5072739;28;20044;-63
2021/12/30 10:02:42;;;;;;;16.40;6.97;;;;;;;;;;5074512;28;20146;-62
2021/12/30 10:05:10;;;;;;;19.48;7.18;;;;;;;;;;5074443;28;20091;-62
2021/12/30 10:07:39;;;;;;;18.27;6.93;;;;;;;;;;5073495;28;20044;-62
2021/12/30 10:10:26;;;;;;;16.75;5.95;;;;;;;;;;5074302;28;20095;-62
2021/12/30 10:12:52;;;;;;;14.77;5.47;;;;;;;;;;5063349;28;20053;-62
2021/12/30 10:15:20;;;;;;;12.80;5.50;;;;;;;;;;5073595;28;20040;-62
2021/12/30 10:17:53;;;;;;;12.98;5.00;;;;;;;;;;5074137;28;20387;-62
2021/12/30 10:20:25;;;;;;;16.00;6.38;;;;;;;;;;5073642;28;20174;-62
2021/12/30 10:22:52;;;;;;;16.92;5.78;;;;;;;;;;5072655;28;20078;-62
2021/12/30 10:25:28;;;;;;;14.82;5.00;;;;;;;;;;5074083;28;20091;-62
2021/12/30 10:27:55;;;;;;;19.27;6.15;;;;;;;;;;5073637;28;20079;-62
2021/12/30 10:30:34;;;;;;;14.52;4.85;;;;;;;;;;5073377;28;20036;-62
2021/12/30 10:33:20;;;;;;;13.77;5.00;;;;;;;;;;5073886;28;20032;-62
2021/12/30 10:35:47;;;;;;;17.58;5.10;;;;;;;;;;5073576;28;20513;-63
2021/12/30 10:38:14;;;;;;;15.43;4.25;;;;;;;;;;5073033;28;20543;-62
2021/12/30 10:40:42;;;;;;;20.45;5.25;;;;;;;;;;5073802;28;20459;-62
2021/12/30 10:43:18;;;;;;;24.45;4.72;;;;;;;;;;5073530;28;20074;-62
2021/12/30 10:46:00;;;;;;;15.30;4.55;;;;;;;;;;5072520;28;20455;-62
2021/12/30 10:48:26;;;;;;;27.27;5.18;;;;;;;;;;5073158;28;20072;-63
2021/12/30 10:51:08;;;;;;;16.98;4.97;;;;;;;;;;5073752;28;20410;-62
2021/12/30 10:53:36;;;;;;;17.80;5.47;;;;;;;;;;5073515;28;20089;-63
2021/12/30 10:56:20;;;;;;;23.40;5.13;;;;;;;;;;5073455;28;20102;-62
2021/12/30 10:58:47;;;;;;;18.17;4.97;;;;;;;;;;5072799;28;20048;-63
2021/12/30 11:01:17;;;;;;;21.90;5.00;;;;;;;;;;5072571;28;20048;-63
2021/12/30 11:03:54;;;;;;;24.50;5.30;;;;;;;;;;5072773;28;20072;-62
2021/12/30 11:06:20;;;;;;;31.55;5.20;;;;;;;;;;5071832;28;20083;-62
2021/12/30 11:08:49;;;;;;;25.05;5.63;;;;;;;;;;5071572;28;20052;-62
2021/12/30 11:11:28;;;;;;;24.40;5.55;;;;;;;;;;5073236;28;20072;-62
2021/12/30 11:13:59;;;;;;;30.23;5.35;;;;;;;;;;5071061;28;20063;-62
2021/12/30 11:16:25;;;;;;;25.05;5.70;;;;;;;;;;5071426;28;20032;-62
2021/12/30 11:18:51;;;;;;;32.55;5.38;;;;;;;;;;5073201;28;20058;-62
2021/12/30 11:21:36;;;;;;;25.08;5.38;;;;;;;;;;5072567;28;20559;-62
2021/12/30 11:24:03;;;;;;;26.15;5.63;;;;;;;;;;5072307;28;20102;-62
2021/12/30 11:26:29;;;;;;;30.77;6.00;;;;;;;;;;5072337;28;20439;-63
2021/12/30 11:28:56;;;;;;;26.42;6.20;;;;;;;;;;5071281;28;20044;-62
2021/12/30 11:31:22;;;;;;;34.30;6.30;;;;;;;;;;5071507;28;20040;-63
2021/12/30 11:33:49;;;;;;;32.17;5.82;;;;;;;;;;5053468;28;20051;-62
2021/12/30 11:36:17;;;;;;;27.73;5.68;;;;;;;;;;5071056;28;20421;-63
2021/12/30 11:38:43;;;;;;;32.05;5.38;;;;;;;;;;5071777;28;20487;-62
2021/12/30 11:41:16;;;;;;;28.17;5.82;;;;;;;;;;5071631;28;20057;-62
2021/12/30 11:43:43;;;;;;;21.92;5.35;;;;;;;;;;5070920;28;20045;-62
2021/12/30 11:46:29;;;;;;;30.60;6.20;;;;;;;;;;5071230;28;20041;-62
2021/12/30 11:48:57;;;;;;;29.00;5.82;;;;;;;;;;5071097;28;20402;-63
2021/12/30 11:51:23;;;;;;;29.42;5.32;;;;;;;;;;5070903;28;20037;-62
2021/12/30 11:53:53;;;;;;;28.25;6.00;;;;;;;;;;5071047;28;20037;-61
2021/12/30 11:56:22;;;;;;;36.25;5.70;;;;;;;;;;5071299;28;20082;-62
2021/12/30 11:58:50;;;;;;;27.95;5.72;;;;;;;;;;5070108;28;20474;-63
2021/12/30 12:01:17;;;;;;;25.75;5.03;;;;;;;;;;5071013;28;20130;-62
2021/12/30 12:03:46;;;;;;;27.38;5.40;;;;;;;;;;5071379;28;20040;-62
2021/12/30 12:06:24;;;;;;;28.20;5.20;;;;;;;;;;5070000;28;20483;-62
2021/12/30 12:08:54;;;;;;;24.95;5.13;;;;;;;;;;5071174;28;20044;-62
2021/12/30 12:11:22;;;;;;;31.45;5.45;;;;;;;;;;5070973;28;20040;-62
2021/12/30 12:13:49;;;;;;;30.88;5.32;;;;;;;;;;5070421;28;20464;-62
2021/12/30 12:16:38;;;;;;;22.13;4.85;;;;;;;;;;5071174;28;20040;-62
2021/12/30 12:19:05;;;;;;;26.45;4.97;;;;;;;;;;5072773;28;20036;-63
2021/12/30 12:21:41;;;;;;;31.40;5.25;;;;;;;;;;5074301;28;20052;-62
2021/12/30 12:24:25;;;;;;;27.33;4.93;;;;;;;;;;5073057;28;20053;-62
2021/12/30 12:27:02;;;;;;;30.27;5.40;;;;;;;;;;5072422;28;20101;-64
2021/12/30 12:29:30;;;;;;;36.42;5.40;;;;;;;;;;5068293;28;20044;-64
2021/12/30 12:31:57;;;;;;;32.75;5.60;;;;;;;;;;5060124;28;20046;-64
2021/12/30 12:34:33;;;;;;;30.92;5.35;;;;;;;;;;5068477;28;20051;-66
2021/12/30 12:36:59;;;;;;;27.88;4.70;;;;;;;;;;5077863;28;20715;-65
2021/12/30 12:39:35;;;;;;;25.05;4.85;;;;;;;;;;5067845;28;20124;-66
2021/12/30 12:42:02;;;;;;;25.98;5.90;;;;;;;;;;5056637;28;20036;-65
2021/12/30 12:44:29;;;;;;;23.17;4.50;;;;;;;;;;5070053;28;20041;-65
2021/12/30 12:46:56;;;;;;;29.65;5.22;;;;;;;;;;5070961;28;20040;-66
2021/12/30 12:49:34;;;;;;;31.13;5.30;;;;;;;;;;5074112;28;20076;-65
2021/12/30 12:52:01;;;;;;;31.23;5.57;;;;;;;;;;5068669;28;20068;-65
2021/12/30 12:54:47;;;;;;;29.52;5.55;;;;;;;;;;5069154;28;20075;-61
2021/12/30 12:57:14;;;;;;;27.17;6.22;;;;;;;;;;5069378;28;20040;-62
2021/12/30 12:59:40;;;;;;;28.63;5.03;;;;;;;;;;5066895;28;20048;-61
2021/12/30 13:02:11;;;;;;;29.05;4.68;;;;;;;;;;5067667;28;20040;-61
2021/12/30 13:04:37;;;;;;;32.08;4.78;;;;;;;;;;5071443;28;20042;-61
2021/12/30 13:07:08;;;;;;;25.05;4.63;;;;;;;;;;5069363;28;20086;-62
2021/12/30 13:09:34;;;;;;;29.92;5.07;;;;;;;;;;5074818;28;20482;-62
2021/12/30 13:12:03;;;;;;;18.98;4.57;;;;;;;;;;5068458;28;20036;-61
2021/12/30 13:14:29;;;;;;;24.27;4.57;;;;;;;;;;5065440;28;20043;-61
2021/12/30 13:16:56;;;;;;;24.27;4.53;;;;;;;;;;5067610;28;20474;-63
2021/12/30 13:19:23;;;;;;;35.35;5.07;;;;;;;;;;5066913;28;20280;-62
2021/12/30 13:21:52;;;;;;;25.40;4.32;;;;;;;;;;5068112;28;20427;-62
2021/12/30 13:24:28;;;;;;;24.17;4.45;;;;;;;;;;5068712;28;20139;-62
2021/12/30 13:26:55;;;;;;;24.38;5.30;;;;;;;;;;5067849;28;20059;-61
2021/12/30 13:29:32;;;;;;;30.25;5.43;;;;;;;;;;5070189;28;20468;-62
2021/12/30 13:32:03;;;;;;;31.77;5.30;;;;;;;;;;5069118;28;20368;-60
2021/12/30 13:34:29;;;;;;;33.88;5.97;;;;;;;;;;5100274;28;20048;-61
2021/12/30 13:37:09;;;;;;;23.80;4.78;;;;;;;;;;5068389;28;20127;-62
2021/12/30 13:39:35;;;;;;;26.55;5.97;;;;;;;;;;5068879;28;20040;-63
2021/12/30 13:42:02;;;;;;;30.80;5.38;;;;;;;;;;5068199;28;20037;-63
2021/12/30 13:44:42;;;;;;;27.35;5.88;;;;;;;;;;5064208;28;20084;-63
2021/12/30 13:47:18;;;;;;;33.35;5.57;;;;;;;;;;5065500;28;20033;-63
2021/12/30 13:49:46;;;;;;;23.88;5.55;;;;;;;;;;5070842;28;20040;-62
2021/12/30 13:52:12;;;;;;;27.98;5.15;;;;;;;;;;5080724;28;20041;-62
2021/12/30 13:54:38;;;;;;;29.98;5.00;;;;;;;;;;5072423;28;20028;-61
2021/12/30 13:57:04;;;;;;;31.73;5.22;;;;;;;;;;5068222;28;20550;-60
2021/12/30 13:59:31;;;;;;;28.70;5.68;;;;;;;;;;5071041;28;20075;-61
2021/12/30 14:02:00;;;;;;;26.10;5.03;;;;;;;;;;5066183;28;20611;-62
2021/12/30 14:04:38;;;;;;;27.10;5.72;;;;;;;;;;5066600;28;20102;-62
2021/12/30 14:07:04;;;;;;;26.58;4.80;;;;;;;;;;5066341;28;20040;-61
2021/12/30 14:09:30;;;;;;;32.75;5.63;;;;;;;;;;5067338;28;20098;-61
2021/12/30 14:12:00;;;;;;;24.92;5.32;;;;;;;;;;5068409;28;20036;-61
2021/12/30 14:14:29;;;;;;;25.83;5.30;;;;;;;;;;5061666;28;20124;-61
2021/12/30 14:16:56;;;;;;;22.35;4.93;;;;;;;;;;5062567;28;20390;-62
2021/12/30 14:19:34;;;;;;;31.23;6.07;;;;;;;;;;5066029;28;20135;-62
2021/12/30 14:22:00;;;;;;;25.75;5.50;;;;;;;;;;5068928;28;20045;-61
2021/12/30 14:24:29;;;;;;;21.23;4.80;;;;;;;;;;5071536;28;20118;-62
2021/12/30 14:27:15;;;;;;;25.48;4.88;;;;;;;;;;5067130;28;20098;-62
2021/12/30 14:29:41;;;;;;;24.52;4.78;;;;;;;;;;5072104;28;20037;-63